Time;durP1;ratioP1;P1;durP2;ratioP2;P2;SDS_P1;SDS_P2;PMS_P1;PMS_P2;Temp;Humidity;BMP_temperature;BMP_pressure;BME280_temperature;BME280_humidity;BME280_pressure;Samples;Min_cycle;Max_cycle;Signal;HPM_P1;HPM_P2
2021/12/19 00:02:01;;;;;;;18.63;7.03;;;7.20;99.90;;;;;;5031878;28;20668;-81
2021/12/19 00:04:54;;;;;;;15.82;6.18;;;7.20;99.90;;;;;;5018064;28;20037;-81
2021/12/19 00:10:04;;;;;;;16.77;5.95;;;7.20;99.90;;;;;;5036014;28;20052;-80
2021/12/19 00:12:29;;;;;;;16.52;6.03;;;7.20;99.90;;;;;;5013535;28;20456;-80
2021/12/19 00:14:55;;;;;;;13.37;5.10;;;7.10;99.90;;;;;;5015426;28;20041;-81
2021/12/19 00:17:21;;;;;;;9.50;3.93;;;7.20;99.90;;;;;;4998971;28;20036;-81
2021/12/19 00:19:46;;;;;;;6.90;3.20;;;7.20;99.90;;;;;;5026929;28;20032;-81
2021/12/19 00:22:13;;;;;;;6.90;2.93;;;7.10;99.90;;;;;;5027001;28;20148;-81
2021/12/19 00:24:38;;;;;;;7.80;2.83;;;7.10;99.90;;;;;;5026213;28;20129;-81
2021/12/19 00:27:04;;;;;;;5.33;2.27;;;7.10;99.90;;;;;;5027083;28;20548;-81
2021/12/19 00:29:30;;;;;;;7.88;2.80;;;7.10;99.90;;;;;;5030813;28;20094;-81
2021/12/19 00:31:56;;;;;;;9.90;2.77;;;7.10;99.90;;;;;;5015096;28;20440;-81
2021/12/19 00:34:22;;;;;;;7.70;2.93;;;7.10;99.90;;;;;;5031906;28;20072;-81
2021/12/19 00:36:47;;;;;;;11.03;3.20;;;7.10;99.90;;;;;;5013955;28;20048;-81
2021/12/19 00:39:13;;;;;;;12.10;4.30;;;7.10;99.90;;;;;;5014152;28;20287;-81
2021/12/19 00:41:39;;;;;;;10.00;3.10;;;7.10;99.90;;;;;;5030891;28;20044;-81
2021/12/19 00:44:10;;;;;;;10.93;3.90;;;7.00;99.90;;;;;;4999212;28;20374;-81
2021/12/19 00:46:51;;;;;;;10.05;3.88;;;7.10;99.90;;;;;;5011170;28;20040;-81
2021/12/19 00:49:18;;;;;;;8.55;3.17;;;7.10;99.90;;;;;;5029813;28;20044;-81
2021/12/19 00:51:44;;;;;;;9.88;3.15;;;7.10;99.90;;;;;;5016604;28;20378;-81
2021/12/19 00:54:11;;;;;;;7.72;2.60;;;7.10;99.90;;;;;;5032222;28;20045;-81
2021/12/19 00:56:42;;;;;;;6.07;2.60;;;7.00;99.90;;;;;;5031849;28;20080;-81
2021/12/19 00:59:08;;;;;;;5.18;2.78;;;7.00;99.90;;;;;;5048515;28;20128;-81
2021/12/19 01:01:36;;;;;;;8.60;3.00;;;7.00;99.90;;;;;;5032677;28;20037;-81
2021/12/19 01:04:10;;;;;;;6.35;2.20;;;7.00;99.90;;;;;;5015954;28;20041;-81
2021/12/19 01:06:37;;;;;;;5.70;2.50;;;7.10;99.90;;;;;;5018767;28;20033;-81
2021/12/19 01:09:04;;;;;;;7.68;2.67;;;7.00;99.90;;;;;;5032332;28;20463;-81
2021/12/19 01:11:30;;;;;;;6.10;2.85;;;7.00;99.90;;;;;;5032176;28;20048;-81
2021/12/19 01:13:56;;;;;;;7.50;3.13;;;7.00;99.90;;;;;;5015749;28;20039;-81
2021/12/19 01:16:22;;;;;;;11.47;3.23;;;7.00;99.90;;;;;;5028136;28;20300;-81
2021/12/19 01:18:48;;;;;;;9.73;3.37;;;7.00;99.90;;;;;;5014429;28;20025;-81
2021/12/19 01:21:15;;;;;;;9.60;3.67;;;7.00;99.90;;;;;;5032956;28;20037;-81
2021/12/19 01:23:40;;;;;;;7.45;2.92;;;7.00;99.90;;;;;;5032139;28;20045;-81
2021/12/19 01:26:06;;;;;;;8.10;2.93;;;7.00;99.90;;;;;;5063498;28;20036;-81
2021/12/19 01:28:32;;;;;;;8.47;2.80;;;7.10;99.90;;;;;;5029154;28;20461;-81
2021/12/19 01:30:58;;;;;;;11.27;3.20;;;7.00;99.90;;;;;;5031658;28;20067;-81
2021/12/19 01:33:23;;;;;;;8.70;2.87;;;7.00;99.90;;;;;;4995975;28;20508;-81
2021/12/19 01:35:49;;;;;;;4.57;1.70;;;7.00;99.90;;;;;;5014668;28;20485;-81
2021/12/19 01:38:15;;;;;;;4.10;1.20;;;7.00;99.90;;;;;;5048361;28;20080;-81
2021/12/19 01:40:41;;;;;;;3.05;1.00;;;7.00;99.90;;;;;;5031822;28;20041;-81
2021/12/19 01:43:07;;;;;;;4.00;1.07;;;7.00;99.90;;;;;;5010723;28;20037;-81
2021/12/19 01:45:35;;;;;;;3.97;0.77;;;7.00;99.90;;;;;;4997306;28;20037;-81
2021/12/19 01:48:04;;;;;;;3.95;0.60;;;7.00;99.90;;;;;;5025473;28;20033;-81
2021/12/19 01:50:31;;;;;;;1.83;0.40;;;7.00;99.90;;;;;;5031736;28;20086;-81
2021/12/19 01:52:58;;;;;;;2.03;0.38;;;7.00;99.90;;;;;;5015623;28;20045;-81
2021/12/19 01:55:23;;;;;;;2.08;0.35;;;6.90;99.90;;;;;;5032303;28;20068;-81
2021/12/19 01:57:50;;;;;;;2.73;0.37;;;6.90;99.90;;;;;;5026351;28;20088;-81
2021/12/19 02:00:22;;;;;;;2.47;0.75;;;6.90;99.90;;;;;;5014610;28;20537;-81
2021/12/19 02:02:48;;;;;;;4.22;1.00;;;6.80;99.90;;;;;;5028152;28;20042;-81
2021/12/19 02:05:14;;;;;;;2.43;0.70;;;6.90;99.90;;;;;;5030756;28;20127;-81
2021/12/19 02:07:46;;;;;;;3.70;0.80;;;6.80;99.90;;;;;;5012573;28;20045;-81
2021/12/19 02:10:12;;;;;;;5.07;0.75;;;6.80;99.90;;;;;;5047274;28;20044;-81
2021/12/19 02:12:38;;;;;;;4.13;0.70;;;6.80;99.90;;;;;;5043210;28;20116;-81
2021/12/19 02:15:05;;;;;;;4.03;1.17;;;6.80;99.90;;;;;;5031529;28;20052;-81
2021/12/19 02:17:31;;;;;;;2.75;0.70;;;6.80;99.90;;;;;;5063586;28;20064;-81
2021/12/19 02:19:57;;;;;;;1.13;0.33;;;6.80;99.90;;;;;;5014387;28;20489;-81
2021/12/19 02:22:23;;;;;;;2.58;0.35;;;6.70;99.90;;;;;;5031546;28;20517;-81
2021/12/19 02:24:49;;;;;;;4.27;0.97;;;6.70;99.90;;;;;;5064640;28;20124;-81
2021/12/19 02:27:14;;;;;;;4.40;0.60;;;6.60;99.90;;;;;;5030332;28;20398;-81
2021/12/19 02:29:40;;;;;;;2.77;0.80;;;6.60;99.90;;;;;;5015869;28;20040;-81
2021/12/19 02:32:07;;;;;;;3.53;0.93;;;6.70;99.90;;;;;;5029362;28;20455;-81
2021/12/19 02:34:39;;;;;;;3.60;1.27;;;6.60;99.90;;;;;;5012924;28;20049;-81
2021/12/19 02:37:17;;;;;;;3.65;1.25;;;6.60;99.90;;;;;;5028843;28;20489;-81
2021/12/19 02:48:10;;;;;;;4.28;0.90;;;6.60;99.90;;;;;;5033545;28;20487;-81
2021/12/19 02:48:13;;;;;;;3.78;1.30;;;6.60;99.90;;;;;;5033938;28;20052;-81
2021/12/19 02:50:47;;;;;;;4.65;1.42;;;6.70;99.90;;;;;;5003242;28;20045;-81
2021/12/19 02:53:14;;;;;;;5.20;1.63;;;6.70;99.90;;;;;;5031040;28;20556;-81
2021/12/19 02:55:42;;;;;;;4.35;1.40;;;6.70;99.90;;;;;;5047315;28;20045;-81
2021/12/19 02:58:07;;;;;;;2.47;1.10;;;6.70;99.90;;;;;;5062785;28;20451;-81
2021/12/19 03:00:33;;;;;;;3.50;0.93;;;6.70;99.90;;;;;;5031005;28;20045;-81
2021/12/19 03:02:59;;;;;;;4.23;0.60;;;6.70;99.90;;;;;;4997223;28;20043;-81
2021/12/19 03:05:25;;;;;;;2.10;0.53;;;6.70;99.90;;;;;;5011646;28;20045;-81
2021/12/19 03:07:52;;;;;;;3.20;0.50;;;6.70;99.90;;;;;;4996591;28;20052;-81
2021/12/19 03:11:03;;;;;;;1.00;0.30;;;6.70;99.90;;;;;;5017164;28;20044;-81
2021/12/19 03:18:48;;;;;;;4.80;0.40;;;6.60;99.90;;;;;;5062267;28;20037;-81
2021/12/19 03:21:16;;;;;;;1.77;0.30;;;6.60;99.90;;;;;;5002091;28;20055;-81
2021/12/19 03:23:42;;;;;;;2.22;0.30;;;6.60;99.90;;;;;;5014669;28;20362;-81
2021/12/19 03:26:09;;;;;;;1.77;0.35;;;6.60;99.90;;;;;;5013008;28;20094;-81
2021/12/19 03:28:34;;;;;;;3.78;0.30;;;6.60;99.90;;;;;;5029493;28;20097;-80
2021/12/19 03:31:02;;;;;;;1.80;0.40;;;6.50;99.90;;;;;;5030598;28;20604;-80
2021/12/19 03:33:28;;;;;;;1.05;0.45;;;6.50;99.90;;;;;;5029608;28;20048;-81
2021/12/19 03:35:54;;;;;;;0.95;0.30;;;6.50;99.90;;;;;;5041697;28;20061;-81
2021/12/19 03:38:20;;;;;;;1.83;0.20;;;6.50;99.90;;;;;;4991818;28;20033;-81
2021/12/19 03:40:54;;;;;;;2.77;0.30;;;6.50;99.90;;;;;;4998316;28;20040;-81
2021/12/19 03:43:22;;;;;;;3.70;0.30;;;6.50;99.90;;;;;;5015156;28;20122;-81
2021/12/19 03:45:49;;;;;;;3.72;0.45;;;6.50;99.90;;;;;;5029887;28;20041;-81
2021/12/19 03:48:16;;;;;;;2.50;0.50;;;6.50;99.90;;;;;;5058866;28;20048;-81
2021/12/19 03:50:46;;;;;;;4.07;0.60;;;6.50;99.90;;;;;;5028240;28;20045;-81
2021/12/19 03:53:13;;;;;;;2.67;0.88;;;6.50;99.90;;;;;;5061413;28;20033;-81
2021/12/19 03:55:40;;;;;;;4.72;0.70;;;6.40;99.90;;;;;;5046698;28;20047;-81
2021/12/19 03:58:06;;;;;;;2.88;0.75;;;6.50;99.90;;;;;;5012240;28;20148;-81
2021/12/19 04:00:32;;;;;;;8.30;1.10;;;6.50;99.90;;;;;;5043014;28;20518;-81
2021/12/19 04:03:07;;;;;;;5.30;1.15;;;6.50;99.90;;;;;;5031154;28;20036;-81
2021/12/19 04:05:33;;;;;;;4.93;0.95;;;6.50;99.90;;;;;;5046262;28;20421;-81
2021/12/19 04:07:59;;;;;;;3.88;0.63;;;6.40;99.90;;;;;;5007922;28;20149;-81
2021/12/19 04:10:27;;;;;;;4.85;0.93;;;6.40;99.90;;;;;;5030498;28;20044;-81
2021/12/19 04:12:57;;;;;;;4.40;0.90;;;6.40;99.90;;;;;;5032920;28;20402;-81
2021/12/19 04:15:23;;;;;;;7.70;1.15;;;6.50;99.90;;;;;;5033687;28;20033;-81
2021/12/19 04:17:49;;;;;;;5.95;1.40;;;6.40;99.90;;;;;;5016846;28;20045;-81
2021/12/19 04:20:15;;;;;;;5.70;1.30;;;6.50;99.90;;;;;;5031612;28;20162;-81
2021/12/19 04:22:48;;;;;;;4.17;1.30;;;6.50;99.90;;;;;;5043288;28;20210;-81
2021/12/19 04:25:14;;;;;;;3.45;0.98;;;6.40;99.90;;;;;;5033568;28;20048;-81
2021/12/19 04:27:40;;;;;;;3.30;1.00;;;6.50;99.90;;;;;;5033919;28;20041;-81
2021/12/19 04:30:09;;;;;;;2.80;0.98;;;6.50;99.90;;;;;;5063819;28;20041;-81
2021/12/19 04:32:40;;;;;;;5.40;1.02;;;6.50;99.90;;;;;;5063490;28;20122;-81
2021/12/19 04:35:08;;;;;;;5.80;1.10;;;6.50;99.90;;;;;;5064547;28;20409;-81
2021/12/19 04:40:26;;;;;;;5.13;1.77;;;6.50;99.90;;;;;;5047826;28;20060;-81
2021/12/19 04:51:37;;;;;;;9.57;3.17;;;6.60;99.90;;;;;;5019715;28;20040;-81
2021/12/19 04:59:15;;;;;;;9.67;3.50;;;6.60;99.90;;;;;;5027101;28;20056;-81
2021/12/19 05:15:17;;;;;;;15.15;3.90;;;6.70;99.90;;;;;;5021629;28;20041;-82
2021/12/19 05:17:43;;;;;;;10.63;3.60;;;6.70;99.90;;;;;;5016067;28;20044;-81
2021/12/19 05:20:15;;;;;;;16.27;3.67;;;6.70;99.90;;;;;;5028850;28;20521;-81
2021/12/19 05:22:49;;;;;;;11.50;4.20;;;6.80;99.90;;;;;;5062756;28;20056;-81
2021/12/19 05:25:17;;;;;;;16.30;4.90;;;6.80;99.90;;;;;;5017949;28;20044;-81
2021/12/19 05:27:55;;;;;;;15.13;5.38;;;6.80;99.90;;;;;;5016871;28;20041;-81
2021/12/19 05:30:23;;;;;;;17.27;5.68;;;6.80;99.90;;;;;;5029058;28;20052;-81
2021/12/19 05:32:50;;;;;;;18.38;6.55;;;6.80;99.90;;;;;;4999577;28;21253;-81
2021/12/19 05:35:23;;;;;;;16.38;6.82;;;6.80;99.90;;;;;;5011623;28;20041;-81
2021/12/19 05:46:02;;;;;;;20.17;7.90;;;6.90;99.90;;;;;;5048521;28;20055;-82
2021/12/19 05:48:28;;;;;;;24.05;7.32;;;6.90;99.90;;;;;;5029954;28;20113;-81
2021/12/19 05:50:54;;;;;;;19.07;8.80;;;6.90;99.90;;;;;;5014285;28;20444;-81
2021/12/19 05:53:20;;;;;;;24.13;8.43;;;6.90;99.90;;;;;;5031612;28;20037;-81
2021/12/19 05:55:46;;;;;;;23.20;8.67;;;6.90;99.90;;;;;;5048329;28;20048;-81
2021/12/19 05:58:12;;;;;;;23.70;8.97;;;6.90;99.90;;;;;;5014248;28;20084;-81
2021/12/19 06:00:38;;;;;;;20.85;9.23;;;6.90;99.90;;;;;;5056247;28;20088;-81
2021/12/19 06:03:04;;;;;;;26.52;9.25;;;6.90;99.90;;;;;;5028391;28;20401;-81
2021/12/19 06:05:30;;;;;;;24.37;10.37;;;6.90;99.90;;;;;;5014016;28;20052;-81
2021/12/19 06:07:56;;;;;;;30.20;10.65;;;6.90;99.90;;;;;;5014576;28;20076;-82
2021/12/19 06:10:22;;;;;;;26.60;9.27;;;6.90;99.90;;;;;;5030938;28;20094;-82
2021/12/19 06:12:49;;;;;;;23.55;9.07;;;6.90;99.90;;;;;;4996035;28;20081;-82
2021/12/19 06:15:16;;;;;;;24.27;8.15;;;6.90;99.90;;;;;;5031033;28;20374;-82
2021/12/19 06:17:44;;;;;;;18.33;6.30;;;6.90;99.90;;;;;;5047501;28;20052;-81
2021/12/19 06:20:11;;;;;;;23.35;5.65;;;6.90;99.90;;;;;;5046761;28;20044;-81
2021/12/19 06:22:38;;;;;;;16.20;3.60;;;6.90;99.90;;;;;;5031346;28;20084;-81
2021/12/19 06:25:05;;;;;;;16.40;3.65;;;6.90;99.90;;;;;;5015243;28;20029;-81
2021/12/19 06:27:31;;;;;;;17.63;3.72;;;6.90;99.90;;;;;;5031366;28;20497;-81
2021/12/19 06:29:57;;;;;;;16.13;3.60;;;6.90;99.90;;;;;;4998535;28;20098;-81
2021/12/19 06:32:23;;;;;;;11.10;3.87;;;6.90;99.90;;;;;;5029254;28;20409;-81
2021/12/19 06:34:48;;;;;;;14.83;3.77;;;6.90;99.90;;;;;;5047321;28;20044;-81
2021/12/19 06:37:14;;;;;;;15.17;3.70;;;6.90;99.90;;;;;;5045046;28;20048;-82
2021/12/19 06:39:41;;;;;;;12.07;3.80;;;6.90;99.90;;;;;;5014362;28;20484;-82
2021/12/19 06:42:09;;;;;;;15.00;4.53;;;6.90;99.90;;;;;;5047515;28;20064;-82
2021/12/19 06:44:35;;;;;;;11.55;3.80;;;6.80;99.90;;;;;;5047032;28;20055;-82
2021/12/19 06:47:03;;;;;;;17.33;4.30;;;6.80;99.90;;;;;;5028360;28;20378;-82
2021/12/19 06:49:29;;;;;;;15.18;4.07;;;6.80;99.90;;;;;;5031781;28;20493;-82
2021/12/19 06:51:55;;;;;;;11.48;4.15;;;6.80;99.90;;;;;;5014692;28;20791;-82
2021/12/19 06:54:21;;;;;;;17.07;4.10;;;6.80;99.90;;;;;;5030974;28;20040;-82
2021/12/19 06:56:47;;;;;;;13.70;3.77;;;6.80;99.90;;;;;;5014504;28;20072;-82
2021/12/19 06:59:12;;;;;;;16.05;4.85;;;6.90;99.90;;;;;;5029826;28;20454;-82
2021/12/19 07:01:39;;;;;;;18.60;5.00;;;6.80;99.90;;;;;;5030255;28;20052;-82
2021/12/19 07:04:05;;;;;;;17.70;4.90;;;6.80;99.90;;;;;;5025878;28;20033;-82
2021/12/19 07:06:31;;;;;;;15.50;4.30;;;6.90;99.90;;;;;;5029340;28;20517;-82
2021/12/19 07:08:57;;;;;;;17.13;6.50;;;6.80;99.90;;;;;;5030812;28;20043;-82
2021/12/19 07:11:23;;;;;;;20.53;5.27;;;6.80;99.90;;;;;;5014209;28;20047;-82
2021/12/19 07:13:48;;;;;;;18.23;5.70;;;6.80;99.90;;;;;;5014683;28;20508;-82
2021/12/19 07:16:15;;;;;;;18.70;6.27;;;6.80;99.90;;;;;;5053509;28;20041;-82
2021/12/19 07:18:42;;;;;;;17.67;4.82;;;6.80;99.90;;;;;;5024102;28;20536;-82
2021/12/19 07:21:08;;;;;;;12.48;4.05;;;6.90;99.90;;;;;;5011980;28;20496;-82
2021/12/19 07:23:34;;;;;;;17.17;3.73;;;6.90;99.90;;;;;;5014426;28;20056;-82
2021/12/19 07:26:00;;;;;;;9.77;2.67;;;6.80;99.90;;;;;;5013459;28;20120;-82
2021/12/19 07:28:26;;;;;;;4.60;0.90;;;6.80;99.90;;;;;;5010804;28;20029;-82
2021/12/19 07:30:52;;;;;;;4.00;0.95;;;6.80;99.90;;;;;;5050635;28;20043;-82
2021/12/19 07:33:18;;;;;;;5.65;1.13;;;6.80;99.90;;;;;;5015067;28;20041;-82
2021/12/19 07:35:47;;;;;;;4.57;0.90;;;6.80;99.90;;;;;;5046703;28;20049;-82
2021/12/19 07:38:21;;;;;;;8.65;1.08;;;6.80;99.90;;;;;;5046143;28;20404;-82
2021/12/19 07:40:50;;;;;;;7.18;1.63;;;6.80;99.90;;;;;;5031673;28;20051;-82
2021/12/19 07:43:16;;;;;;;5.45;1.60;;;6.80;99.90;;;;;;5030553;28;20055;-82
2021/12/19 07:45:43;;;;;;;8.98;1.58;;;6.80;99.90;;;;;;5049455;28;20110;-82
2021/12/19 07:48:10;;;;;;;7.03;1.52;;;6.80;99.90;;;;;;5035385;28;20083;-82
2021/12/19 07:50:36;;;;;;;6.18;1.80;;;6.80;99.90;;;;;;5032241;28;20040;-82
2021/12/19 07:53:03;;;;;;;10.07;2.20;;;6.70;99.90;;;;;;5018400;28;20455;-82
2021/12/19 07:55:30;;;;;;;10.75;2.30;;;6.80;99.90;;;;;;5034385;28;20037;-82
2021/12/19 07:57:56;;;;;;;11.15;2.42;;;6.80;99.90;;;;;;5033435;28;20048;-82
2021/12/19 08:00:22;;;;;;;7.93;1.95;;;6.70;99.90;;;;;;5033613;28;20056;-82
2021/12/19 08:02:49;;;;;;;8.80;2.40;;;6.80;99.90;;;;;;5078564;28;20036;-82
2021/12/19 08:05:16;;;;;;;9.93;2.28;;;6.80;99.90;;;;;;5033138;28;20657;-82
2021/12/19 08:07:46;;;;;;;8.50;2.38;;;6.70;99.90;;;;;;5033101;28;20130;-82
2021/12/19 08:11:39;;;;;;;13.68;3.20;;;6.80;99.90;;;;;;5033591;28;20052;-82
2021/12/19 08:13:04;;;;;;;13.82;4.13;;;6.70;99.90;;;;;;5049690;28;20135;-82
2021/12/19 08:15:34;;;;;;;14.57;3.95;;;6.70;99.90;;;;;;5050204;28;20044;-82
2021/12/19 08:18:00;;;;;;;14.82;3.47;;;6.70;99.90;;;;;;5025892;28;20423;-82
2021/12/19 08:20:27;;;;;;;12.30;3.13;;;6.80;99.90;;;;;;5017036;28;20037;-82
2021/12/19 08:22:54;;;;;;;13.15;3.55;;;6.80;99.90;;;;;;5032431;28;20086;-82
2021/12/19 08:25:20;;;;;;;10.23;3.38;;;6.80;99.90;;;;;;5046155;28;20525;-82
2021/12/19 08:27:46;;;;;;;17.05;4.57;;;6.80;99.90;;;;;;5000060;28;20045;-82
2021/12/19 08:30:15;;;;;;;14.93;3.17;;;6.80;99.90;;;;;;5034408;28;20436;-82
2021/12/19 08:32:41;;;;;;;13.93;3.90;;;6.90;99.90;;;;;;5024158;28;20098;-82
2021/12/19 08:35:08;;;;;;;13.43;2.90;;;6.90;99.90;;;;;;5047972;28;20045;-82
2021/12/19 08:37:34;;;;;;;15.25;3.17;;;6.90;99.90;;;;;;5031357;28;20183;-82
2021/12/19 08:40:00;;;;;;;17.05;3.40;;;7.00;99.90;;;;;;5047889;28;20068;-82
2021/12/19 08:42:28;;;;;;;14.30;2.73;;;7.00;99.90;;;;;;5017138;28;20099;-82
2021/12/19 08:44:54;;;;;;;13.82;2.88;;;6.90;99.90;;;;;;5016680;28;20249;-82
2021/12/19 08:47:20;;;;;;;17.77;3.30;;;7.00;99.90;;;;;;5000982;28;20041;-81
2021/12/19 08:49:46;;;;;;;11.40;3.10;;;7.10;99.90;;;;;;5032299;28;20372;-81
2021/12/19 08:52:12;;;;;;;19.27;3.57;;;7.10;99.90;;;;;;5032866;28;20131;-81
2021/12/19 08:54:38;;;;;;;10.07;3.40;;;7.00;99.90;;;;;;5027423;28;20047;-81
2021/12/19 08:57:04;;;;;;;17.98;4.00;;;7.10;99.90;;;;;;5048283;28;20041;-82
2021/12/19 08:59:30;;;;;;;17.33;4.47;;;7.10;99.90;;;;;;5059684;28;20057;-82
2021/12/19 09:02:01;;;;;;;12.82;4.20;;;7.10;99.90;;;;;;5012977;28;20116;-82
2021/12/19 09:04:28;;;;;;;19.65;4.25;;;7.10;99.90;;;;;;5014406;28;20041;-82
2021/12/19 09:06:56;;;;;;;18.23;4.25;;;7.10;99.90;;;;;;5049997;28;20571;-82
2021/12/19 09:09:23;;;;;;;21.17;4.35;;;7.10;99.90;;;;;;5035991;28;20065;-82
2021/12/19 09:11:48;;;;;;;19.38;3.75;;;7.10;99.90;;;;;;5018837;28;20049;-82
2021/12/19 09:14:14;;;;;;;16.13;3.27;;;7.20;99.90;;;;;;5036488;28;20048;-82
2021/12/19 09:16:40;;;;;;;20.90;3.93;;;7.20;99.90;;;;;;5027524;28;20129;-82
2021/12/19 09:19:06;;;;;;;17.13;3.13;;;7.20;99.90;;;;;;5055231;28;20034;-82
2021/12/19 09:21:31;;;;;;;17.10;3.30;;;7.20;99.90;;;;;;5014388;28;20434;-81
2021/12/19 09:23:57;;;;;;;16.10;3.57;;;7.30;99.90;;;;;;5029672;28;20562;-81
2021/12/19 09:26:23;;;;;;;16.67;3.70;;;7.30;99.90;;;;;;5029726;28;20041;-81
2021/12/19 09:28:49;;;;;;;15.20;3.13;;;7.20;99.90;;;;;;5042766;28;20048;-81
2021/12/19 09:31:14;;;;;;;12.23;2.73;;;7.30;99.90;;;;;;5010565;28;20051;-81
2021/12/19 09:33:40;;;;;;;14.97;2.60;;;7.30;99.90;;;;;;4992267;28;20052;-81
2021/12/19 09:36:06;;;;;;;9.13;2.93;;;7.30;99.90;;;;;;5050806;28;20139;-81
2021/12/19 09:38:34;;;;;;;8.30;2.38;;;7.30;99.90;;;;;;5028666;28;20392;-82
2021/12/19 09:41:11;;;;;;;17.83;2.65;;;7.30;99.90;;;;;;5008903;28;20445;-82
2021/12/19 09:43:44;;;;;;;9.25;2.38;;;7.40;99.90;;;;;;5036593;28;20037;-82
2021/12/19 09:46:15;;;;;;;11.40;2.67;;;7.40;99.90;;;;;;5052757;28;20112;-82
2021/12/19 09:48:42;;;;;;;10.88;2.63;;;7.40;99.90;;;;;;5028257;28;20045;-82
2021/12/19 09:51:10;;;;;;;8.77;2.22;;;7.40;99.90;;;;;;5005954;28;20501;-82
2021/12/19 09:53:37;;;;;;;12.70;2.53;;;7.50;99.90;;;;;;5051164;28;20049;-82
2021/12/19 09:56:03;;;;;;;15.20;2.78;;;7.50;99.90;;;;;;5025771;28;20052;-82
2021/12/19 09:58:34;;;;;;;17.05;3.20;;;7.50;99.90;;;;;;5011515;28;20057;-82
2021/12/19 10:01:03;;;;;;;13.52;3.38;;;7.50;99.90;;;;;;5007057;28;20041;-82
2021/12/19 10:03:28;;;;;;;15.10;3.20;;;7.50;99.90;;;;;;5010327;28;20040;-82
2021/12/19 10:06:22;;;;;;;18.30;3.30;;;7.50;99.90;;;;;;5007673;28;20041;-82
2021/12/19 10:09:06;;;;;;;13.90;3.90;;;7.50;99.90;;;;;;5040596;28;20124;-82
2021/12/19 10:11:45;;;;;;;14.50;3.50;;;7.50;99.90;;;;;;5027978;28;20091;-82
2021/12/19 10:14:31;;;;;;;14.85;3.15;;;7.50;99.90;;;;;;5057843;28;20067;-81
2021/12/19 10:16:59;;;;;;;13.82;2.92;;;7.50;99.90;;;;;;5053819;28;20096;-81
2021/12/19 10:19:45;;;;;;;15.95;3.20;;;7.60;99.90;;;;;;5036556;28;20048;-81
2021/12/19 10:22:26;;;;;;;10.70;2.90;;;7.60;99.90;;;;;;5010981;28;20346;-81
2021/12/19 10:24:53;;;;;;;14.07;3.50;;;7.60;99.90;;;;;;5027435;28;20040;-81
2021/12/19 10:27:36;;;;;;;11.98;3.00;;;7.70;99.90;;;;;;5044935;28;20060;-81
2021/12/19 10:30:09;;;;;;;18.25;3.70;;;7.70;99.90;;;;;;5044265;28;20044;-81
2021/12/19 10:32:36;;;;;;;18.63;3.70;;;7.70;99.90;;;;;;5047369;28;20454;-82
2021/12/19 10:35:20;;;;;;;18.27;3.75;;;7.70;99.90;;;;;;5047534;28;20045;-82
2021/12/19 10:37:46;;;;;;;18.23;3.58;;;7.70;99.90;;;;;;5030199;28;20044;-82
2021/12/19 10:40:12;;;;;;;17.83;4.00;;;7.70;99.90;;;;;;5029698;28;20045;-82
2021/12/19 10:43:04;;;;;;;20.90;4.30;;;7.70;99.90;;;;;;5014349;28;20044;-82
2021/12/19 10:45:43;;;;;;;17.17;3.40;;;7.80;99.90;;;;;;5026482;28;20428;-82
2021/12/19 10:48:13;;;;;;;12.90;3.22;;;7.70;99.90;;;;;;5027167;28;20045;-82
2021/12/19 10:50:58;;;;;;;16.17;3.97;;;7.70;99.90;;;;;;5072442;28;20539;-82
2021/12/19 10:53:27;;;;;;;16.23;3.90;;;7.70;99.90;;;;;;5027387;28;20033;-82
2021/12/19 10:55:53;;;;;;;21.92;3.95;;;7.80;99.90;;;;;;5029901;28;20389;-82
2021/12/19 10:58:30;;;;;;;12.70;3.03;;;7.80;99.90;;;;;;5029435;28;20099;-82
2021/12/19 11:01:07;;;;;;;15.98;3.28;;;7.70;99.90;;;;;;5028109;28;20048;-81
2021/12/19 11:03:50;;;;;;;15.80;3.30;;;7.80;99.90;;;;;;5027871;28;20098;-81
2021/12/19 11:06:29;;;;;;;16.33;3.45;;;7.80;99.90;;;;;;5027291;28;20493;-82
2021/12/19 11:08:58;;;;;;;15.98;3.95;;;7.80;99.90;;;;;;5054521;28;20561;-81
2021/12/19 11:11:32;;;;;;;16.67;3.20;;;7.80;99.90;;;;;;5051089;28;20179;-81
2021/12/19 11:13:58;;;;;;;13.18;3.20;;;7.80;99.90;;;;;;5024706;28;20056;-81
2021/12/19 11:16:25;;;;;;;13.07;3.50;;;7.90;99.90;;;;;;5025450;28;20048;-81
2021/12/19 11:18:51;;;;;;;23.08;3.60;;;7.80;99.90;;;;;;5024622;28;20121;-81
2021/12/19 11:21:19;;;;;;;14.33;2.93;;;7.90;99.90;;;;;;5042577;28;20123;-81
2021/12/19 11:23:46;;;;;;;9.43;2.67;;;7.90;99.90;;;;;;5006969;28;20041;-81
2021/12/19 11:26:13;;;;;;;15.82;2.83;;;7.90;99.90;;;;;;5026405;28;20037;-81
2021/12/19 11:28:39;;;;;;;15.95;3.50;;;7.80;99.90;;;;;;5075409;28;20475;-81
2021/12/19 11:31:06;;;;;;;14.83;3.23;;;7.80;99.90;;;;;;5025884;28;20049;-81
2021/12/19 11:33:57;;;;;;;22.52;3.97;;;7.80;99.90;;;;;;5025057;28;20045;-82
2021/12/19 11:36:26;;;;;;;17.70;3.20;;;7.80;99.90;;;;;;5024961;28;20576;-82
2021/12/19 11:38:53;;;;;;;18.10;3.38;;;7.90;99.90;;;;;;5024849;28;20295;-82
2021/12/19 11:41:19;;;;;;;18.30;2.92;;;7.80;99.90;;;;;;5005375;28;20537;-82
2021/12/19 11:43:47;;;;;;;18.93;3.73;;;7.80;99.90;;;;;;5019904;28;20041;-82
2021/12/19 11:46:23;;;;;;;19.10;3.10;;;7.80;99.90;;;;;;5000825;28;20052;-82
2021/12/19 11:49:09;;;;;;;15.77;2.65;;;7.90;99.90;;;;;;5013371;28;20095;-82
2021/12/19 11:51:35;;;;;;;12.98;2.38;;;7.90;99.90;;;;;;5023006;28;20138;-82
2021/12/19 11:54:16;;;;;;;14.17;2.67;;;7.80;99.90;;;;;;5038799;28;20504;-82
2021/12/19 11:57:08;;;;;;;16.90;2.75;;;7.90;99.90;;;;;;5030208;28;20572;-82
2021/12/19 11:59:36;;;;;;;16.98;2.85;;;7.90;99.90;;;;;;5049406;28;20055;-82
2021/12/19 12:02:24;;;;;;;12.88;2.90;;;7.90;99.90;;;;;;5048232;28;20033;-82
2021/12/19 12:05:15;;;;;;;17.02;2.53;;;7.80;99.90;;;;;;5026415;28;20559;-82
2021/12/19 12:08:14;;;;;;;16.80;2.85;;;7.80;99.90;;;;;;5045718;28;20041;-82
2021/12/19 12:10:54;;;;;;;17.73;2.97;;;7.90;99.90;;;;;;5041725;28;20041;-82
2021/12/19 12:13:42;;;;;;;19.50;3.03;;;7.90;99.90;;;;;;5031070;28;20051;-82
2021/12/19 12:16:25;;;;;;;17.42;2.55;;;7.90;99.90;;;;;;5032777;28;20123;-82
2021/12/19 12:19:03;;;;;;;13.85;2.50;;;7.90;99.90;;;;;;5043500;28;20097;-82
2021/12/19 12:24:13;;;;;;;17.90;3.88;;;7.90;99.90;;;;;;5078084;28;20545;-82
2021/12/19 12:27:02;;;;;;;17.65;2.88;;;7.90;99.90;;;;;;5032104;28;20511;-82
2021/12/19 12:29:28;;;;;;;15.95;2.97;;;7.90;99.90;;;;;;5025701;28;20120;-82
2021/12/19 12:31:54;;;;;;;21.17;3.22;;;7.90;99.90;;;;;;5014753;28;20079;-82
2021/12/19 12:34:20;;;;;;;10.90;2.50;;;7.90;99.90;;;;;;5036393;28;20080;-83
2021/12/19 12:36:46;;;;;;;14.68;2.70;;;7.90;99.90;;;;;;5035192;28;20192;-83
2021/12/19 12:39:37;;;;;;;18.65;3.20;;;8.00;99.90;;;;;;5015242;28;20507;-83
2021/12/19 12:42:04;;;;;;;18.08;3.92;;;8.00;99.90;;;;;;5056577;28;20095;-83
2021/12/19 12:44:30;;;;;;;16.17;3.05;;;8.00;99.90;;;;;;5013292;28;20048;-83
2021/12/19 12:46:56;;;;;;;15.60;3.00;;;8.00;99.90;;;;;;5031738;28;20040;-83
2021/12/19 12:49:34;;;;;;;16.57;3.13;;;8.00;99.90;;;;;;5014195;28;20071;-83
2021/12/19 12:52:04;;;;;;;16.92;2.55;;;8.00;99.90;;;;;;5042159;28;20049;-83
2021/12/19 12:54:37;;;;;;;15.10;2.60;;;8.00;99.90;;;;;;5026560;28;20386;-83
2021/12/19 12:57:09;;;;;;;16.35;2.47;;;8.00;99.90;;;;;;5029728;28;20344;-83
2021/12/19 12:59:39;;;;;;;15.00;3.13;;;8.00;99.90;;;;;;4999878;28;20913;-83
2021/12/19 13:04:38;;;;;;;25.65;4.13;;;8.00;99.90;;;;;;5043316;28;20049;-83
2021/12/19 13:07:04;;;;;;;18.80;2.78;;;8.00;99.90;;;;;;5035082;28;20037;-83
2021/12/19 13:09:57;;;;;;;17.17;2.93;;;7.90;99.90;;;;;;5029098;28;20164;-83
2021/12/19 13:12:25;;;;;;;19.10;3.47;;;8.00;99.90;;;;;;5063064;28;20044;-83
2021/12/19 13:14:57;;;;;;;18.98;2.75;;;8.00;99.90;;;;;;5030060;28;20048;-83
2021/12/19 13:17:27;;;;;;;22.15;4.10;;;8.00;99.90;;;;;;5031275;28;20041;-83
2021/12/19 13:19:53;;;;;;;22.60;3.25;;;8.00;99.90;;;;;;5030354;28;20029;-83
2021/12/19 13:22:30;;;;;;;17.27;2.53;;;8.10;99.90;;;;;;5042121;28;20496;-83
2021/12/19 13:25:09;;;;;;;17.77;2.40;;;8.10;99.90;;;;;;5036518;28;20124;-83
2021/12/19 13:27:39;;;;;;;18.52;3.30;;;8.10;99.90;;;;;;5029969;28;20136;-83
2021/12/19 13:30:13;;;;;;;13.32;2.40;;;8.10;99.90;;;;;;5043922;28;20045;-83
2021/12/19 13:32:56;;;;;;;13.00;2.15;;;8.10;99.90;;;;;;5026711;28;20049;-83
2021/12/19 13:35:31;;;;;;;17.00;2.60;;;8.10;99.90;;;;;;5043362;28;20099;-83
2021/12/19 13:38:10;;;;;;;15.38;2.90;;;8.10;99.90;;;;;;5026721;28;20036;-83
2021/12/19 13:40:45;;;;;;;16.27;3.10;;;8.10;99.90;;;;;;5041527;28;20052;-83
2021/12/19 13:43:19;;;;;;;12.82;2.50;;;8.10;99.90;;;;;;5026882;28;20047;-83
2021/12/19 13:46:00;;;;;;;11.52;2.22;;;8.10;99.90;;;;;;5036341;28;20041;-83
2021/12/19 13:48:35;;;;;;;20.85;3.47;;;8.10;99.90;;;;;;5028805;28;20090;-83
2021/12/19 13:51:07;;;;;;;14.85;2.35;;;8.10;99.90;;;;;;5062468;28;20036;-83
2021/12/19 13:53:36;;;;;;;14.15;2.20;;;8.10;99.90;;;;;;5030320;28;20033;-83
2021/12/19 13:56:06;;;;;;;26.08;8.25;;;8.10;99.90;;;;;;5031548;28;20119;-83
2021/12/19 13:58:47;;;;;;;20.77;4.00;;;8.00;99.90;;;;;;5022690;28;20076;-83
2021/12/19 14:01:27;;;;;;;18.50;3.10;;;8.00;99.90;;;;;;5028667;28;20577;-83